createdAt,value
2023-01-30T00:00:10.924Z,4.55
2023-01-30T00:02:37.390Z,4.79
2023-01-30T00:05:04.438Z,3.91
2023-01-30T00:07:30.886Z,3.93
2023-01-30T00:09:57.300Z,4.26
2023-01-30T00:12:23.711Z,4.35
2023-01-30T00:14:51.475Z,4.61
2023-01-30T00:17:17.886Z,4.93
2023-01-30T00:19:44.276Z,4.81
2023-01-30T00:22:10.689Z,4.84
2023-01-30T00:24:37.323Z,4.56
2023-01-30T00:27:03.868Z,4.68
2023-01-30T00:29:30.265Z,4.33
2023-01-30T00:31:58.079Z,4.80
2023-01-30T00:34:24.530Z,4.59
2023-01-30T00:37:02.531Z,4.40
2023-01-30T00:39:33.760Z,4.31
2023-01-30T00:42:00.161Z,4.57
2023-01-30T00:44:26.595Z,4.69
2023-01-30T00:46:53.073Z,4.44
2023-01-30T00:49:20.831Z,4.57
2023-01-30T00:51:47.378Z,4.23
2023-01-30T00:54:13.797Z,4.69
2023-01-30T00:56:40.214Z,4.87
2023-01-30T00:59:06.656Z,4.58
2023-01-30T01:01:33.511Z,4.39
2023-01-30T01:03:59.933Z,4.66
2023-01-30T01:06:27.651Z,4.30
2023-01-30T01:08:54.264Z,4.31
2023-01-30T01:11:20.791Z,4.82
2023-01-30T01:13:47.197Z,4.38
2023-01-30T01:16:13.620Z,4.63
2023-01-30T01:18:40.084Z,4.01
2023-01-30T01:21:06.538Z,4.09
2023-01-30T01:23:34.293Z,4.38
2023-01-30T01:26:01.526Z,4.00
2023-01-30T01:28:27.978Z,3.95
2023-01-30T01:30:54.435Z,4.28
2023-01-30T01:33:20.898Z,4.16
2023-01-30T01:35:47.370Z,4.42
2023-01-30T01:38:13.994Z,4.12
2023-01-30T01:40:45.754Z,4.10
2023-01-30T01:43:16.829Z,4.78
2023-01-30T01:45:45.139Z,4.33
2023-01-30T01:48:18.844Z,3.89
2023-01-30T01:50:49.724Z,4.21
2023-01-30T01:53:21.361Z,4.38
2023-01-30T01:55:52.262Z,4.17
2023-01-30T01:58:23.909Z,4.47
2023-01-30T02:00:50.955Z,4.59
2023-01-30T02:03:21.429Z,4.36
2023-01-30T02:05:51.411Z,4.48
2023-01-30T02:08:22.479Z,4.28
2023-01-30T02:10:56.493Z,4.67
2023-01-30T02:13:23.578Z,4.80
2023-01-30T02:15:51.296Z,4.82
2023-01-30T02:18:18.381Z,4.92
2023-01-30T02:21:10.779Z,4.84
2023-01-30T02:24:03.389Z,4.77
2023-01-30T02:26:52.631Z,5.10
2023-01-30T02:29:54.469Z,4.95
2023-01-30T02:32:34.057Z,4.61
2023-01-30T02:35:06.958Z,4.60
2023-01-30T02:37:48.364Z,4.92
2023-01-30T02:40:28.275Z,5.04
2023-01-30T02:43:05.929Z,4.77
2023-01-30T02:45:36.134Z,4.66
2023-01-30T02:48:06.560Z,5.24
2023-01-30T02:50:37.087Z,5.52
2023-01-30T02:53:05.349Z,4.80
2023-01-30T02:55:32.099Z,4.92
2023-01-30T02:57:58.533Z,5.44
2023-01-30T03:00:37.486Z,5.24
2023-01-30T03:03:32.354Z,4.89
2023-01-30T03:06:13.047Z,5.34
2023-01-30T03:08:48.458Z,5.24
2023-01-30T03:11:15.241Z,5.31
2023-01-30T03:13:50.387Z,4.73
2023-01-30T03:16:20.988Z,5.49
2023-01-30T03:18:49.524Z,5.37
2023-01-30T03:21:16.631Z,5.40
2023-01-30T03:23:44.540Z,5.12
2023-01-30T03:26:16.859Z,4.87
2023-01-30T03:28:44.927Z,5.11
2023-01-30T03:31:11.497Z,5.00
2023-01-30T03:33:37.984Z,5.13
2023-01-30T03:36:06.353Z,4.98
2023-01-30T03:38:33.904Z,4.79
2023-01-30T03:41:00.575Z,5.17
2023-01-30T03:43:26.989Z,5.16
2023-01-30T03:45:53.419Z,5.57
2023-01-30T03:48:20.020Z,5.22
2023-01-30T03:50:46.418Z,5.08
2023-01-30T03:53:14.182Z,5.32
2023-01-30T03:55:40.611Z,5.61
2023-01-30T03:58:07.151Z,5.19
2023-01-30T04:00:33.573Z,5.00
2023-01-30T04:03:00.016Z,5.41
2023-01-30T04:05:26.465Z,4.99
2023-01-30T04:07:56.499Z,5.28
2023-01-30T04:10:24.600Z,5.63
2023-01-30T04:12:51.018Z,5.34
2023-01-30T04:15:17.751Z,5.74
2023-01-30T04:17:44.464Z,5.85
2023-01-30T04:20:11.477Z,5.49
2023-01-30T04:22:37.862Z,5.35
2023-01-30T04:25:04.836Z,5.31
2023-01-30T04:27:32.569Z,5.36
2023-01-30T04:29:58.969Z,5.91
2023-01-30T04:32:26.187Z,5.69
2023-01-30T04:34:52.611Z,5.77
2023-01-30T04:37:19.008Z,5.69
2023-01-30T04:39:45.431Z,5.99
2023-01-30T04:42:11.848Z,5.90
2023-01-30T04:44:39.568Z,5.82
2023-01-30T04:47:06.014Z,5.85
2023-01-30T04:49:32.530Z,5.65
2023-01-30T04:51:58.926Z,5.79
2023-01-30T04:54:25.523Z,5.83
2023-01-30T04:56:51.962Z,5.53
2023-01-30T04:59:18.435Z,6.02
2023-01-30T05:01:46.330Z,5.76
2023-01-30T05:04:12.979Z,6.05
2023-01-30T05:06:39.369Z,5.93
2023-01-30T05:09:06.043Z,5.64
2023-01-30T05:11:32.749Z,6.19
2023-01-30T05:13:59.302Z,5.97
2023-01-30T05:16:26.647Z,5.64
2023-01-30T05:18:54.376Z,6.29
2023-01-30T05:21:22.634Z,6.08
2023-01-30T05:23:50.717Z,5.81
2023-01-30T05:26:17.198Z,6.21
2023-01-30T05:28:43.755Z,5.81
2023-01-30T05:31:12.672Z,5.94
2023-01-30T05:33:40.110Z,5.87
2023-01-30T05:36:13.478Z,5.85
2023-01-30T05:38:39.886Z,5.51
2023-01-30T05:41:08.066Z,5.73
2023-01-30T05:43:35.387Z,5.98
2023-01-30T05:46:05.729Z,5.88
2023-01-30T05:48:33.355Z,5.75
2023-01-30T05:51:00.275Z,6.02
2023-01-30T05:53:30.087Z,5.68
2023-01-30T05:55:57.123Z,5.97
2023-01-30T05:58:24.157Z,6.06
2023-01-30T06:00:51.457Z,5.82
2023-01-30T06:03:17.977Z,5.76
2023-01-30T06:05:44.486Z,6.07
2023-01-30T06:08:11.037Z,5.75
2023-01-30T06:10:38.804Z,5.90
2023-01-30T06:13:05.246Z,5.71
2023-01-30T06:15:32.494Z,6.06
2023-01-30T06:17:58.868Z,6.08
2023-01-30T06:20:25.329Z,6.06
2023-01-30T06:22:51.707Z,6.14
2023-01-30T06:25:18.355Z,5.63
2023-01-30T06:27:47.127Z,5.97
2023-01-30T06:30:14.109Z,6.18
2023-01-30T06:32:40.539Z,6.16
2023-01-30T06:35:07.973Z,6.20
2023-01-30T06:37:34.367Z,6.37
2023-01-30T06:40:00.782Z,6.31
2023-01-30T06:42:27.228Z,6.28
2023-01-30T06:44:54.962Z,6.34
2023-01-30T06:47:21.413Z,6.33
2023-01-30T06:49:47.812Z,6.40
2023-01-30T06:52:14.223Z,6.31
2023-01-30T06:54:40.600Z,6.57
2023-01-30T06:57:07.128Z,6.69
2023-01-30T06:59:33.551Z,6.49
2023-01-30T07:02:01.318Z,6.42
2023-01-30T07:04:27.881Z,6.16
2023-01-30T07:06:54.316Z,6.10
2023-01-30T07:09:20.731Z,6.22
2023-01-30T07:11:47.162Z,6.30
2023-01-30T07:14:13.559Z,6.24
2023-01-30T07:16:39.983Z,6.48
2023-01-30T07:19:07.954Z,6.37
2023-01-30T07:21:34.349Z,6.13
2023-01-30T07:24:00.754Z,6.28
2023-01-30T07:26:27.199Z,6.18
2023-01-30T07:28:53.620Z,6.23
2023-01-30T07:31:20.073Z,6.35
2023-01-30T07:33:46.555Z,6.43
2023-01-30T07:36:14.327Z,6.41
2023-01-30T07:38:40.734Z,6.47
2023-01-30T07:41:07.160Z,6.59
2023-01-30T07:43:33.563Z,6.43
2023-01-30T07:46:00.632Z,6.23
2023-01-30T07:48:27.100Z,6.34
2023-01-30T07:50:55.991Z,6.49
2023-01-30T07:53:24.019Z,6.58
2023-01-30T07:56:12.541Z,5.95
2023-01-30T07:58:38.933Z,6.16
2023-01-30T08:01:05.739Z,6.28
2023-01-30T08:03:32.254Z,6.56
2023-01-30T08:05:59.086Z,6.78
2023-01-30T08:08:26.857Z,6.30
2023-01-30T08:10:53.312Z,6.76
2023-01-30T08:13:19.698Z,6.63
2023-01-30T08:15:46.111Z,6.64
2023-01-30T08:18:12.588Z,6.67
2023-01-30T08:20:39.070Z,6.59
2023-01-30T08:23:05.841Z,6.77
2023-01-30T08:25:33.919Z,6.87
2023-01-30T08:28:00.301Z,6.38
2023-01-30T08:30:26.903Z,6.57
2023-01-30T08:32:53.354Z,6.47
2023-01-30T08:35:20.228Z,6.46
2023-01-30T08:37:46.631Z,6.78
2023-01-30T08:40:14.053Z,6.48
2023-01-30T08:42:43.879Z,6.83
2023-01-30T08:45:11.552Z,6.20
2023-01-30T08:47:38.068Z,6.91
2023-01-30T08:50:05.627Z,6.71
2023-01-30T08:52:32.095Z,6.88
2023-01-30T08:54:58.519Z,6.98
2023-01-30T08:57:24.912Z,6.94
2023-01-30T08:59:52.751Z,6.91
2023-01-30T09:02:19.315Z,7.02
2023-01-30T09:04:45.761Z,6.97
2023-01-30T09:07:12.204Z,6.94
2023-01-30T09:09:38.636Z,7.12
2023-01-30T09:12:05.349Z,7.01
2023-01-30T09:14:31.743Z,7.18
2023-01-30T09:16:59.784Z,7.34
2023-01-30T09:19:27.802Z,7.48
2023-01-30T09:21:55.040Z,7.13
2023-01-30T09:24:22.535Z,6.73
2023-01-30T09:26:48.998Z,6.79
2023-01-30T09:29:15.498Z,6.92
2023-01-30T09:31:42.005Z,7.28
2023-01-30T09:34:09.772Z,7.17
2023-01-30T09:36:36.197Z,7.15
2023-01-30T09:39:02.605Z,7.10
2023-01-30T09:41:48.841Z,7.14
2023-01-30T09:44:34.761Z,6.96
2023-01-30T09:47:09.371Z,7.20
2023-01-30T09:49:50.353Z,7.06
2023-01-30T09:52:27.319Z,7.06
2023-01-30T09:55:00.420Z,7.28
2023-01-30T09:57:27.019Z,7.20
2023-01-30T09:59:57.496Z,7.10
2023-01-30T10:02:36.950Z,7.12
2023-01-30T10:05:05.714Z,6.65
2023-01-30T10:07:45.301Z,7.09
2023-01-30T10:10:20.928Z,7.05
2023-01-30T10:12:57.885Z,7.11
2023-01-30T10:15:39.810Z,7.01
2023-01-30T10:18:43.071Z,7.29
2023-01-30T10:21:24.524Z,7.58
2023-01-30T10:24:06.156Z,7.24
2023-01-30T10:26:33.450Z,7.32
2023-01-30T10:29:07.757Z,7.61
2023-01-30T10:31:41.533Z,7.62
2023-01-30T10:34:12.120Z,7.75
2023-01-30T10:36:45.903Z,7.55
2023-01-30T10:39:20.157Z,7.18
2023-01-30T10:41:55.203Z,7.27
2023-01-30T10:44:24.181Z,7.44
2023-01-30T10:47:17.394Z,7.86
2023-01-30T10:49:46.495Z,7.59
2023-01-30T10:52:24.827Z,7.23
2023-01-30T10:55:00.903Z,7.41
2023-01-30T10:57:36.734Z,7.70
2023-01-30T11:00:08.921Z,7.93
2023-01-30T11:02:43.086Z,7.50
2023-01-30T11:05:16.063Z,7.23
2023-01-30T11:07:46.969Z,7.47
2023-01-30T11:10:16.968Z,7.39
2023-01-30T11:12:43.385Z,7.46
2023-01-30T11:15:11.052Z,7.23
2023-01-30T11:17:40.611Z,6.65
2023-01-30T11:20:14.174Z,6.83
2023-01-30T11:22:48.400Z,7.00
2023-01-30T11:25:18.455Z,7.25
2023-01-30T11:27:52.923Z,6.56
2023-01-30T11:30:21.573Z,6.80
2023-01-30T11:32:49.669Z,6.32
2023-01-30T11:35:28.044Z,6.75
2023-01-30T11:38:11.434Z,7.23
2023-01-30T11:40:39.138Z,7.32
2023-01-30T11:43:12.156Z,6.91
2023-01-30T11:45:41.751Z,7.14
2023-01-30T11:48:34.040Z,7.18
2023-01-30T11:51:06.129Z,7.72
2023-01-30T11:53:38.545Z,7.08
2023-01-30T11:56:10.567Z,7.28
2023-01-30T11:58:40.658Z,7.29
2023-01-30T12:01:10.261Z,7.05
2023-01-30T12:03:44.842Z,7.01
2023-01-30T12:06:11.442Z,6.95
2023-01-30T12:08:42.969Z,6.57
2023-01-30T12:11:26.175Z,6.50
2023-01-30T12:13:55.062Z,6.14
2023-01-30T12:16:24.068Z,5.68
2023-01-30T12:18:59.124Z,5.57
2023-01-30T12:21:34.662Z,5.30
2023-01-30T12:24:22.001Z,5.90
2023-01-30T12:26:55.052Z,5.59
2023-01-30T12:29:27.837Z,5.85
2023-01-30T12:32:05.309Z,5.95
2023-01-30T12:34:31.985Z,5.44
2023-01-30T12:37:14.651Z,6.16
2023-01-30T12:39:58.771Z,6.18
2023-01-30T12:42:31.648Z,6.49
2023-01-30T12:45:14.073Z,6.52
2023-01-30T12:47:57.386Z,6.37
2023-01-30T12:50:32.464Z,5.49
2023-01-30T12:53:20.712Z,5.94
2023-01-30T12:55:56.026Z,5.93
2023-01-30T12:58:27.559Z,5.73
2023-01-30T13:01:15.755Z,5.45
2023-01-30T13:03:48.419Z,6.03
2023-01-30T13:06:31.815Z,6.12
2023-01-30T13:09:13.661Z,6.08
2023-01-30T13:11:54.947Z,5.99
2023-01-30T13:14:28.769Z,5.91
2023-01-30T13:17:04.669Z,6.10
2023-01-30T13:19:41.155Z,6.11
2023-01-30T13:22:15.590Z,6.18
2023-01-30T13:24:51.334Z,6.33
2023-01-30T13:27:22.150Z,5.92
2023-01-30T13:29:49.937Z,6.07
2023-01-30T13:32:21.570Z,6.34
2023-01-30T13:34:48.775Z,6.29
2023-01-30T13:37:18.702Z,6.41
2023-01-30T13:39:48.962Z,6.74
2023-01-30T13:42:27.722Z,6.92
2023-01-30T13:44:55.968Z,7.31
2023-01-30T13:47:32.356Z,6.87
2023-01-30T13:50:16.675Z,7.20
2023-01-30T13:52:49.683Z,7.03
2023-01-30T13:55:28.552Z,7.04
2023-01-30T13:58:04.161Z,7.18
2023-01-30T14:00:32.615Z,7.09
2023-01-30T14:03:23.275Z,7.24
2023-01-30T14:06:12.720Z,7.11
2023-01-30T14:08:48.598Z,7.44
2023-01-30T14:11:35.373Z,7.45
2023-01-30T14:14:06.611Z,7.38
2023-01-30T14:16:41.408Z,7.08
2023-01-30T14:19:31.332Z,7.42
2023-01-30T14:21:59.537Z,7.45
2023-01-30T14:24:27.277Z,7.37
2023-01-30T14:27:04.911Z,7.39
2023-01-30T14:30:00.337Z,7.31
2023-01-30T14:32:54.981Z,6.70
2023-01-30T14:35:26.531Z,7.45
2023-01-30T14:38:18.473Z,7.41
2023-01-30T14:41:09.547Z,7.06
2023-01-30T14:43:46.138Z,6.97
2023-01-30T14:46:54.365Z,7.21
2023-01-30T14:49:27.321Z,7.27
2023-01-30T14:51:54.263Z,7.11
2023-01-30T14:54:33.327Z,7.14
2023-01-30T14:57:19.111Z,7.15
2023-01-30T15:00:03.240Z,6.83
2023-01-30T15:02:42.735Z,7.17
2023-01-30T15:05:13.948Z,7.25
2023-01-30T15:07:44.087Z,7.23
2023-01-30T15:10:41.019Z,6.99
2023-01-30T15:13:36.183Z,7.11
2023-01-30T15:16:14.675Z,7.12
2023-01-30T15:18:55.614Z,7.20
2023-01-30T15:21:43.495Z,7.00
2023-01-30T15:24:45.538Z,7.10
2023-01-30T15:27:20.637Z,6.79
2023-01-30T15:30:12.630Z,7.25
2023-01-30T15:32:39.031Z,7.28
2023-01-30T15:35:23.169Z,7.32
2023-01-30T15:37:50.532Z,7.16
2023-01-30T15:40:23.768Z,7.10
2023-01-30T15:42:55.888Z,6.89
2023-01-30T15:45:32.821Z,6.91
2023-01-30T15:48:14.599Z,6.73
2023-01-30T15:50:48.302Z,6.95
2023-01-30T15:53:15.467Z,6.88
2023-01-30T15:55:43.999Z,7.11
2023-01-30T15:58:13.594Z,7.07
2023-01-30T16:00:45.672Z,5.96
2023-01-30T16:03:16.932Z,6.09
2023-01-30T16:05:48.620Z,6.68
2023-01-30T16:08:20.933Z,6.23
2023-01-30T16:10:47.390Z,7.16
2023-01-30T16:13:13.843Z,6.25
2023-01-30T16:15:45.842Z,6.49
2023-01-30T16:18:24.005Z,6.52
2023-01-30T16:23:52.513Z,6.82
2023-01-30T16:26:19.859Z,6.80
2023-01-30T16:28:46.248Z,6.83
2023-01-30T16:31:13.233Z,6.68
2023-01-30T16:33:39.781Z,6.74
2023-01-30T16:36:30.645Z,6.94
2023-01-30T16:38:57.127Z,6.51
2023-01-30T16:41:30.192Z,6.41
2023-01-30T16:44:17.030Z,6.88
2023-01-30T16:46:50.407Z,6.60
2023-01-30T16:49:21.160Z,6.68
2023-01-30T16:51:49.786Z,6.65
2023-01-30T16:54:21.014Z,5.80
2023-01-30T16:56:52.745Z,6.20
2023-01-30T16:59:21.303Z,6.14
2023-01-30T17:01:48.910Z,6.13
2023-01-30T17:04:19.532Z,5.76
2023-01-30T17:06:55.422Z,6.12
2023-01-30T17:09:37.180Z,6.31
2023-01-30T17:12:37.379Z,6.20
2023-01-30T17:15:26.717Z,6.07
2023-01-30T17:17:53.176Z,5.72
2023-01-30T17:20:19.602Z,5.66
2023-01-30T17:22:50.524Z,6.36
2023-01-30T17:25:21.893Z,6.46
2023-01-30T17:27:48.480Z,6.34
2023-01-30T17:30:16.605Z,5.93
2023-01-30T17:32:43.198Z,6.02
2023-01-30T17:35:11.790Z,6.42
2023-01-30T17:37:38.438Z,6.26
2023-01-30T17:40:15.843Z,6.55
2023-01-30T17:42:42.343Z,6.39
2023-01-30T17:45:09.656Z,6.66
2023-01-30T17:47:36.795Z,6.50
2023-01-30T17:50:03.559Z,6.53
2023-01-30T17:52:29.992Z,6.64
2023-01-30T17:54:56.423Z,6.61
2023-01-30T17:57:24.211Z,6.45
2023-01-30T17:59:50.628Z,6.59
2023-01-30T18:02:17.045Z,6.56
2023-01-30T18:04:43.426Z,6.46
2023-01-30T18:07:15.795Z,6.53
2023-01-30T18:09:42.746Z,6.55
2023-01-30T18:12:09.160Z,6.79
2023-01-30T18:14:36.928Z,6.42
2023-01-30T18:17:03.465Z,6.56
2023-01-30T18:19:29.911Z,6.71
2023-01-30T18:21:56.286Z,6.42
2023-01-30T18:24:22.707Z,6.58
2023-01-30T18:26:49.143Z,6.26
2023-01-30T18:29:15.675Z,6.50
2023-01-30T18:31:43.571Z,6.54
2023-01-30T18:34:10.837Z,6.69
2023-01-30T18:36:37.553Z,6.81
2023-01-30T18:39:05.331Z,6.56
2023-01-30T18:41:32.206Z,6.60
2023-01-30T18:44:00.969Z,6.79
2023-01-30T18:46:28.910Z,6.49
2023-01-30T18:48:57.003Z,6.65
2023-01-30T18:51:25.336Z,6.67
2023-01-30T18:53:53.691Z,6.64
2023-01-30T18:56:22.043Z,6.62
2023-01-30T18:58:48.808Z,6.76
2023-01-30T19:01:17.464Z,6.75
2023-01-30T19:03:44.381Z,6.59
2023-01-30T19:06:13.838Z,6.67
2023-01-30T19:08:40.710Z,6.64
2023-01-30T19:11:09.034Z,6.41
2023-01-30T19:13:36.643Z,6.74
2023-01-30T19:16:03.969Z,6.78
2023-01-30T19:18:31.561Z,6.38
2023-01-30T19:20:59.473Z,6.56
2023-01-30T19:23:27.777Z,6.55
2023-01-30T19:25:55.324Z,6.74
2023-01-30T19:28:21.883Z,6.71
2023-01-30T19:30:48.777Z,6.42
2023-01-30T19:33:15.589Z,6.42
2023-01-30T19:35:42.178Z,6.46
2023-01-30T19:38:08.621Z,6.57
2023-01-30T19:40:40.327Z,6.53
2023-01-30T19:43:10.804Z,6.42
2023-01-30T19:45:38.157Z,6.44
2023-01-30T19:48:05.382Z,6.55
2023-01-30T19:50:31.821Z,6.40
2023-01-30T19:52:58.544Z,6.44
2023-01-30T19:55:24.989Z,6.24
2023-01-30T19:57:52.777Z,6.12
2023-01-30T20:00:20.531Z,6.10
2023-01-30T20:02:47.248Z,6.03
2023-01-30T20:05:13.691Z,6.09
2023-01-30T20:07:40.111Z,6.22
2023-01-30T20:10:06.981Z,6.07
2023-01-30T20:12:33.405Z,6.21
2023-01-30T20:15:01.722Z,5.93
2023-01-30T20:17:28.194Z,6.21
2023-01-30T20:19:54.649Z,6.10
2023-01-30T20:22:21.077Z,6.04
2023-01-30T20:24:47.499Z,6.02
2023-01-30T20:27:13.965Z,6.04
2023-01-30T20:29:40.503Z,6.23
2023-01-30T20:32:08.262Z,6.42
2023-01-30T20:34:34.702Z,6.22
2023-01-30T20:37:01.183Z,6.30
2023-01-30T20:39:27.781Z,6.19
2023-01-30T20:41:54.202Z,6.19
2023-01-30T20:44:20.625Z,6.32
2023-01-30T20:46:47.409Z,6.31
2023-01-30T20:49:17.063Z,6.24
2023-01-30T20:51:43.620Z,5.95
2023-01-30T20:54:12.069Z,6.19
2023-01-30T20:56:40.408Z,6.39
2023-01-30T20:59:07.581Z,5.84
2023-01-30T21:01:35.022Z,6.17
2023-01-30T21:04:06.125Z,6.18
2023-01-30T21:06:42.976Z,5.98
2023-01-30T21:09:13.655Z,5.73
2023-01-30T21:11:40.333Z,5.34
2023-01-30T21:14:07.352Z,5.74
2023-01-30T21:16:35.455Z,5.78
2023-01-30T21:19:04.212Z,5.53
2023-01-30T21:21:35.201Z,5.31
2023-01-30T21:24:04.508Z,5.60
2023-01-30T21:26:33.678Z,5.15
2023-01-30T21:29:00.716Z,5.44
2023-01-30T21:31:29.033Z,5.38
2023-01-30T21:33:56.600Z,5.38
2023-01-30T21:36:23.444Z,5.81
2023-01-30T21:38:51.591Z,5.77
2023-01-30T21:41:19.820Z,5.74
2023-01-30T21:43:47.285Z,5.53
2023-01-30T21:46:14.691Z,5.62
2023-01-30T21:48:41.163Z,5.70
2023-01-30T21:51:11.828Z,5.70
2023-01-30T21:53:38.770Z,5.61
2023-01-30T21:56:07.595Z,5.47
2023-01-30T21:58:34.085Z,5.73
2023-01-30T22:01:05.583Z,5.82
2023-01-30T22:03:32.189Z,5.64
2023-01-30T22:05:58.610Z,5.79
2023-01-30T22:08:25.053Z,5.58
2023-01-30T22:10:51.461Z,5.78
2023-01-30T22:13:19.205Z,5.35
2023-01-30T22:15:45.630Z,5.23
2023-01-30T22:18:12.048Z,5.38
2023-01-30T22:20:38.607Z,5.13
2023-01-30T22:23:05.055Z,5.27
2023-01-30T22:25:31.434Z,5.40
2023-01-30T22:27:57.835Z,5.22
2023-01-30T22:30:25.622Z,5.56
2023-01-30T22:32:53.348Z,5.70
2023-01-30T22:35:20.179Z,5.25
2023-01-30T22:37:46.860Z,5.50
2023-01-30T22:40:13.510Z,5.53
2023-01-30T22:42:39.917Z,5.34
2023-01-30T22:45:07.847Z,5.69
2023-01-30T22:47:36.052Z,5.81
2023-01-30T22:50:02.495Z,5.99
2023-01-30T22:52:28.932Z,6.02
2023-01-30T22:54:55.345Z,6.11
2023-01-30T22:57:21.768Z,6.16
2023-01-30T22:59:48.184Z,5.83
2023-01-30T23:02:14.668Z,5.46
2023-01-30T23:04:42.437Z,5.20
2023-01-30T23:07:08.891Z,5.70
2023-01-30T23:09:35.667Z,5.37
2023-01-30T23:12:02.077Z,5.87
2023-01-30T23:14:28.492Z,5.90
2023-01-30T23:16:54.926Z,5.55
2023-01-30T23:19:21.361Z,5.27
2023-01-30T23:21:49.234Z,5.52
2023-01-30T23:24:17.979Z,5.44
2023-01-30T23:26:46.098Z,5.53
2023-01-30T23:29:15.769Z,5.54
2023-01-30T23:31:44.338Z,5.23
2023-01-30T23:34:13.074Z,5.29
2023-01-30T23:36:40.078Z,5.20
2023-01-30T23:39:08.155Z,5.25
2023-01-30T23:41:36.572Z,5.24
2023-01-30T23:44:04.124Z,5.34
2023-01-30T23:46:32.479Z,4.81
2023-01-30T23:49:01.000Z,5.53
2023-01-30T23:51:29.694Z,5.21
2023-01-30T23:53:57.171Z,5.41
2023-01-30T23:56:26.894Z,5.38
2023-01-30T23:58:53.782Z,5.19
